createdAt,value
2023-06-17T00:01:10.267Z,18.15
2023-06-17T00:03:45.429Z,18.14
2023-06-17T00:06:12.657Z,18.13
2023-06-17T00:08:40.013Z,18.14
2023-06-17T00:11:07.457Z,18.17
2023-06-17T00:13:35.210Z,18.15
2023-06-17T00:16:05.901Z,18.16
2023-06-17T00:18:33.854Z,18.15
2023-06-17T00:21:00.977Z,18.10
2023-06-17T00:23:28.317Z,18.06
2023-06-17T00:25:55.257Z,18.03
2023-06-17T00:28:22.873Z,18.00
2023-06-17T00:30:49.949Z,17.97
2023-06-17T00:33:17.190Z,17.91
2023-06-17T00:35:44.185Z,17.86
2023-06-17T00:38:11.471Z,17.83
2023-06-17T00:40:38.571Z,17.80
2023-06-17T00:43:06.179Z,17.72
2023-06-17T00:45:40.258Z,17.65
2023-06-17T00:48:12.117Z,17.59
2023-06-17T00:50:39.665Z,17.63
2023-06-17T00:53:07.621Z,17.71
2023-06-17T00:55:35.740Z,17.65
2023-06-17T00:58:03.509Z,17.65
2023-06-17T01:00:30.792Z,17.65
2023-06-17T01:02:59.876Z,17.66
2023-06-17T01:05:28.305Z,17.58
2023-06-17T01:08:34.461Z,17.51
2023-06-17T01:11:09.614Z,17.48
2023-06-17T01:13:38.988Z,17.44
2023-06-17T01:16:06.440Z,17.39
2023-06-17T01:18:34.494Z,17.39
2023-06-17T01:21:05.227Z,17.39
2023-06-17T01:23:39.362Z,17.40
2023-06-17T01:26:08.399Z,17.40
2023-06-17T01:28:39.454Z,17.32
2023-06-17T01:31:09.288Z,17.32
2023-06-17T01:33:40.021Z,17.34
2023-06-17T01:36:21.102Z,17.33
2023-06-17T01:38:59.398Z,17.34
2023-06-17T01:41:37.231Z,17.37
2023-06-17T01:44:09.221Z,17.36
2023-06-17T01:46:38.459Z,17.38
2023-06-17T01:49:07.911Z,17.42
2023-06-17T01:51:35.036Z,17.47
2023-06-17T01:54:02.659Z,17.48
2023-06-17T01:56:30.110Z,17.49
2023-06-17T01:58:57.521Z,17.48
2023-06-17T02:01:24.786Z,17.46
2023-06-17T02:03:52.925Z,17.40
2023-06-17T02:06:19.981Z,17.43
2023-06-17T02:08:48.761Z,17.38
2023-06-17T02:11:16.609Z,17.41
2023-06-17T02:13:43.981Z,17.44
2023-06-17T02:16:11.496Z,17.42
2023-06-17T02:18:38.775Z,17.34
2023-06-17T02:21:05.844Z,17.29
2023-06-17T02:23:33.127Z,17.22
2023-06-17T02:26:00.181Z,17.19
2023-06-17T02:28:27.439Z,17.17
2023-06-17T02:30:54.425Z,17.20
2023-06-17T02:33:24.142Z,17.20
2023-06-17T02:35:51.184Z,17.22
2023-06-17T02:38:18.608Z,17.22
2023-06-17T02:40:45.707Z,17.24
2023-06-17T02:43:13.001Z,17.26
2023-06-17T02:45:40.048Z,17.20
2023-06-17T02:48:07.387Z,17.21
2023-06-17T02:50:34.526Z,17.19
2023-06-17T02:53:01.815Z,17.18
2023-06-17T02:55:29.029Z,17.19
2023-06-17T02:57:56.246Z,17.16
2023-06-17T03:00:24.330Z,17.11
2023-06-17T03:02:52.096Z,17.08
2023-06-17T03:05:19.957Z,17.05
2023-06-17T03:07:48.015Z,17.04
2023-06-17T03:10:16.632Z,17.07
2023-06-17T03:12:43.982Z,17.03
2023-06-17T03:15:11.717Z,17.06
2023-06-17T03:17:39.039Z,17.07
2023-06-17T03:20:09.636Z,17.14
2023-06-17T03:22:37.101Z,17.15
2023-06-17T03:25:05.228Z,17.17
2023-06-17T03:27:32.740Z,17.18
2023-06-17T03:29:59.884Z,17.19
2023-06-17T03:32:27.380Z,17.23
2023-06-17T03:34:54.770Z,17.25
2023-06-17T03:37:23.971Z,17.26
2023-06-17T03:39:50.890Z,17.28
2023-06-17T03:42:18.634Z,17.31
2023-06-17T03:44:45.761Z,17.33
2023-06-17T03:47:13.215Z,17.33
2023-06-17T03:49:40.174Z,17.34
2023-06-17T03:52:08.212Z,17.35
2023-06-17T03:54:35.392Z,17.34
2023-06-17T03:57:02.742Z,17.36
2023-06-17T03:59:29.790Z,17.40
2023-06-17T04:01:57.066Z,17.39
2023-06-17T04:04:24.460Z,17.41
2023-06-17T04:06:51.771Z,17.39
2023-06-17T04:09:18.878Z,17.37
2023-06-17T04:11:46.142Z,17.35
2023-06-17T04:14:13.084Z,17.35
2023-06-17T04:16:43.016Z,17.34
2023-06-17T04:19:14.813Z,17.28
2023-06-17T04:21:42.208Z,17.34
2023-06-17T04:24:09.419Z,17.37
2023-06-17T04:26:37.353Z,17.39
2023-06-17T04:29:07.380Z,17.43
2023-06-17T04:31:36.832Z,17.45
2023-06-17T04:34:03.937Z,17.52
2023-06-17T04:36:31.377Z,17.59
2023-06-17T04:38:59.861Z,17.66
2023-06-17T04:41:28.837Z,17.71
2023-06-17T04:43:55.697Z,17.72
2023-06-17T04:46:22.936Z,17.76
2023-06-17T04:48:50.451Z,17.82
2023-06-17T04:51:19.112Z,17.86
2023-06-17T04:53:46.261Z,17.93
2023-06-17T04:56:13.709Z,18.03
2023-06-17T04:58:40.952Z,18.11
2023-06-17T05:01:08.328Z,18.20
2023-06-17T05:03:35.567Z,18.24
2023-06-17T05:06:03.282Z,18.29
2023-06-17T05:08:30.428Z,18.39
2023-06-17T05:10:57.717Z,18.45
2023-06-17T05:13:24.790Z,18.44
2023-06-17T05:15:52.102Z,18.43
2023-06-17T05:18:19.139Z,18.44
2023-06-17T05:20:46.496Z,18.32
2023-06-17T05:23:13.708Z,18.33
2023-06-17T05:25:41.047Z,18.37
2023-06-17T05:28:08.468Z,18.28
2023-06-17T05:30:36.093Z,18.24
2023-06-17T05:33:03.232Z,18.22
2023-06-17T05:35:30.676Z,18.31
2023-06-17T05:37:57.764Z,18.42
2023-06-17T05:40:25.089Z,18.43
2023-06-17T05:42:52.070Z,18.46
2023-06-17T05:45:19.350Z,18.49
2023-06-17T05:47:47.265Z,18.47
2023-06-17T05:50:14.719Z,18.48
2023-06-17T05:52:41.675Z,18.46
2023-06-17T05:55:11.496Z,18.40
2023-06-17T05:57:38.552Z,18.41
2023-06-17T06:00:07.065Z,18.41
2023-06-17T06:02:34.222Z,18.43
2023-06-17T06:05:01.536Z,18.48
2023-06-17T06:07:28.598Z,18.57
2023-06-17T06:09:56.052Z,18.64
2023-06-17T06:12:23.045Z,18.75
2023-06-17T06:14:52.641Z,18.83
2023-06-17T06:17:19.867Z,18.96
2023-06-17T06:19:47.141Z,19.09
2023-06-17T06:22:14.323Z,19.21
2023-06-17T06:24:41.796Z,19.32
2023-06-17T06:27:08.889Z,19.46
2023-06-17T06:29:36.446Z,19.58
2023-06-17T06:32:04.460Z,19.67
2023-06-17T06:34:31.927Z,19.73
2023-06-17T06:36:59.629Z,19.77
2023-06-17T06:39:27.657Z,19.83
2023-06-17T06:41:54.653Z,19.87
2023-06-17T06:44:22.033Z,19.91
2023-06-17T06:46:49.041Z,19.95
2023-06-17T06:49:16.495Z,19.97
2023-06-17T06:51:43.502Z,20.01
2023-06-17T06:54:10.957Z,20.06
2023-06-17T06:56:37.963Z,20.03
2023-06-17T06:59:05.130Z,20.07
2023-06-17T07:01:32.314Z,20.12
2023-06-17T07:03:59.565Z,20.17
2023-06-17T07:06:26.501Z,20.24
2023-06-17T07:08:54.480Z,20.33
2023-06-17T07:11:21.509Z,20.41
2023-06-17T07:13:48.733Z,20.45
2023-06-17T07:16:15.849Z,20.50
2023-06-17T07:18:43.093Z,20.57
2023-06-17T07:21:11.650Z,20.65
2023-06-17T07:23:38.961Z,20.70
2023-06-17T07:26:07.741Z,20.75
2023-06-17T07:28:34.998Z,20.92
2023-06-17T07:31:02.038Z,21.07
2023-06-17T07:33:29.670Z,21.21
2023-06-17T07:35:56.673Z,21.23
2023-06-17T07:38:25.430Z,21.29
2023-06-17T07:40:53.154Z,21.30
2023-06-17T07:43:20.638Z,21.32
2023-06-17T07:45:48.194Z,21.35
2023-06-17T07:48:15.609Z,21.38
2023-06-17T07:50:42.920Z,21.46
2023-06-17T07:53:10.271Z,21.46
2023-06-17T07:55:38.877Z,21.41
2023-06-17T07:58:06.590Z,21.35
2023-06-17T08:00:33.659Z,21.37
2023-06-17T08:03:01.396Z,21.42
2023-06-17T08:05:28.549Z,21.45
2023-06-17T08:07:55.976Z,21.51
2023-06-17T08:10:23.809Z,21.54
2023-06-17T08:12:51.645Z,21.43
2023-06-17T08:15:18.805Z,21.42
2023-06-17T08:17:46.373Z,21.47
2023-06-17T08:20:15.187Z,21.48
2023-06-17T08:22:42.836Z,21.53
2023-06-17T08:25:10.328Z,21.52
2023-06-17T08:27:38.815Z,21.60
2023-06-17T08:30:07.690Z,21.61
2023-06-17T08:32:35.161Z,21.66
2023-06-17T08:35:07.358Z,21.79
2023-06-17T08:37:35.133Z,21.81
2023-06-17T08:40:06.294Z,21.89
2023-06-17T08:42:34.009Z,22.05
2023-06-17T08:45:01.796Z,21.96
2023-06-17T08:47:29.459Z,21.99
2023-06-17T08:49:58.086Z,22.12
2023-06-17T08:52:27.430Z,22.14
2023-06-17T08:54:55.541Z,22.22
2023-06-17T08:57:23.354Z,22.25
2023-06-17T08:59:50.603Z,22.28
2023-06-17T09:02:18.777Z,22.27
2023-06-17T09:04:46.016Z,22.30
2023-06-17T09:07:14.007Z,22.26
2023-06-17T09:09:41.700Z,22.35
2023-06-17T09:12:09.754Z,22.36
2023-06-17T09:14:38.008Z,22.36
2023-06-17T09:17:05.497Z,22.35
2023-06-17T09:19:33.125Z,22.43
2023-06-17T09:22:07.902Z,22.43
2023-06-17T09:24:35.135Z,22.45
2023-06-17T09:27:03.842Z,22.55
2023-06-17T09:29:31.272Z,22.72
2023-06-17T09:31:59.260Z,22.80
2023-06-17T09:34:27.944Z,22.93
2023-06-17T09:37:02.137Z,22.96
2023-06-17T09:39:32.012Z,23.05
2023-06-17T09:42:10.141Z,23.12
2023-06-17T09:44:41.712Z,23.10
2023-06-17T09:47:10.237Z,23.19
2023-06-17T09:49:38.271Z,23.11
2023-06-17T09:52:09.442Z,23.07
2023-06-17T09:54:38.259Z,23.13
2023-06-17T09:57:10.545Z,23.12
2023-06-17T09:59:38.034Z,23.23
2023-06-17T10:02:06.407Z,23.34
2023-06-17T10:04:35.836Z,23.46
2023-06-17T10:07:08.250Z,23.47
2023-06-17T10:09:36.498Z,23.57
2023-06-17T10:12:06.880Z,23.62
2023-06-17T10:14:36.470Z,23.62
2023-06-17T10:17:12.321Z,23.55
2023-06-17T10:19:42.945Z,23.47
2023-06-17T10:22:15.065Z,23.22
2023-06-17T10:24:43.557Z,22.98
2023-06-17T10:27:11.159Z,22.70
2023-06-17T10:29:46.001Z,22.02
2023-06-17T10:32:26.063Z,21.23
2023-06-17T10:35:22.685Z,20.56
2023-06-17T10:37:51.843Z,20.22
2023-06-17T10:40:25.983Z,19.98
2023-06-17T10:43:02.936Z,19.89
2023-06-17T10:45:45.829Z,19.86
2023-06-17T10:48:30.392Z,19.92
2023-06-17T10:51:03.570Z,20.04
2023-06-17T10:53:37.441Z,20.24
2023-06-17T10:56:11.533Z,20.39
2023-06-17T10:58:48.762Z,20.54
2023-06-17T11:01:16.210Z,20.64
2023-06-17T11:03:43.845Z,20.69
2023-06-17T11:06:11.687Z,20.74
2023-06-17T11:08:39.551Z,20.84
2023-06-17T11:11:15.516Z,20.94
2023-06-17T11:13:48.553Z,21.20
2023-06-17T11:16:15.814Z,21.23
2023-06-17T11:18:45.843Z,21.27
2023-06-17T11:21:13.012Z,21.42
2023-06-17T11:23:44.428Z,21.55
2023-06-17T11:26:11.970Z,21.72
2023-06-17T11:28:42.548Z,21.83
2023-06-17T11:31:09.822Z,21.99
2023-06-17T11:33:40.121Z,22.09
2023-06-17T11:36:11.262Z,22.03
2023-06-17T11:38:39.694Z,22.17
2023-06-17T11:41:07.363Z,22.25
2023-06-17T11:43:35.178Z,22.42
2023-06-17T11:46:03.954Z,22.53
2023-06-17T11:48:35.956Z,22.63
2023-06-17T11:51:03.870Z,22.66
2023-06-17T11:53:37.858Z,22.71
2023-06-17T11:56:08.150Z,22.78
2023-06-17T11:58:39.813Z,22.83
2023-06-17T12:01:09.983Z,22.82
2023-06-17T12:03:38.229Z,22.82
2023-06-17T12:06:06.361Z,22.80
2023-06-17T12:08:39.012Z,22.68
2023-06-17T12:11:26.867Z,22.40
2023-06-17T12:13:55.790Z,21.80
2023-06-17T12:16:37.590Z,19.77
2023-06-17T12:19:09.169Z,18.84
2023-06-17T12:21:37.321Z,18.87
2023-06-17T12:24:04.894Z,18.85
2023-06-17T12:26:35.094Z,18.68
2023-06-17T12:29:08.424Z,18.66
2023-06-17T12:31:38.852Z,18.72
2023-06-17T12:34:07.849Z,18.75
2023-06-17T12:36:35.096Z,18.76
2023-06-17T12:39:05.325Z,18.83
2023-06-17T12:41:32.864Z,18.90
2023-06-17T12:44:00.304Z,19.11
2023-06-17T12:46:27.858Z,19.32
2023-06-17T12:48:55.189Z,19.46
2023-06-17T12:51:22.167Z,19.60
2023-06-17T12:53:49.547Z,19.57
2023-06-17T12:56:16.509Z,19.36
2023-06-17T12:58:43.885Z,19.25
2023-06-17T13:01:11.040Z,19.23
2023-06-17T13:03:38.315Z,19.28
2023-06-17T13:06:06.313Z,19.28
2023-06-17T13:08:33.595Z,19.32
2023-06-17T13:11:00.574Z,19.47
2023-06-17T13:13:28.888Z,19.59
2023-06-17T13:15:56.512Z,19.73
2023-06-17T13:18:23.749Z,19.76
2023-06-17T13:20:52.806Z,19.82
2023-06-17T13:23:20.737Z,19.85
2023-06-17T13:25:47.896Z,19.88
2023-06-17T13:28:15.200Z,19.88
2023-06-17T13:30:42.392Z,19.94
2023-06-17T13:33:09.912Z,20.00
2023-06-17T13:35:37.201Z,20.05
2023-06-17T13:38:04.833Z,20.09
2023-06-17T13:40:32.299Z,20.21
2023-06-17T13:42:59.679Z,20.35
2023-06-17T13:45:27.834Z,20.46
2023-06-17T13:47:55.458Z,20.51
2023-06-17T13:50:23.185Z,20.57
2023-06-17T13:52:50.885Z,20.57
2023-06-17T13:55:18.565Z,20.57
2023-06-17T13:57:45.863Z,20.56
2023-06-17T14:00:13.270Z,20.59
2023-06-17T14:02:40.422Z,20.49
2023-06-17T14:05:08.181Z,20.44
2023-06-17T14:07:35.631Z,20.29
2023-06-17T14:10:02.776Z,20.15
2023-06-17T14:12:30.081Z,19.99
2023-06-17T14:14:57.013Z,19.77
2023-06-17T14:17:25.163Z,19.59
2023-06-17T14:19:52.476Z,19.48
2023-06-17T14:22:19.665Z,19.34
2023-06-17T14:24:46.994Z,19.29
2023-06-17T14:27:43.891Z,19.10
2023-06-17T14:30:15.840Z,18.79
2023-06-17T14:32:46.438Z,18.52
2023-06-17T14:35:17.475Z,18.35
2023-06-17T14:37:47.925Z,18.25
2023-06-17T14:40:17.446Z,18.21
2023-06-17T14:42:45.803Z,18.13
2023-06-17T14:45:15.805Z,18.09
2023-06-17T14:47:45.112Z,18.13
2023-06-17T14:50:13.208Z,18.00
2023-06-17T14:52:48.586Z,18.11
2023-06-17T14:55:16.446Z,18.08
2023-06-17T14:57:43.819Z,18.05
2023-06-17T15:00:12.488Z,18.10
2023-06-17T15:02:58.249Z,18.09
2023-06-17T15:05:27.949Z,18.12
2023-06-17T15:07:55.724Z,18.06
2023-06-17T15:10:23.299Z,18.05
2023-06-17T15:12:51.064Z,17.88
2023-06-17T15:15:18.607Z,17.84
2023-06-17T15:17:46.199Z,17.76
2023-06-17T15:20:14.084Z,17.74
2023-06-17T15:22:42.701Z,17.84
2023-06-17T15:25:11.124Z,17.86
2023-06-17T15:27:38.592Z,17.87
2023-06-17T15:30:06.650Z,17.89
2023-06-17T15:32:34.036Z,17.97
2023-06-17T15:35:01.247Z,18.01
2023-06-17T15:37:30.709Z,18.06
2023-06-17T15:39:57.884Z,18.02
2023-06-17T15:42:25.430Z,18.18
2023-06-17T15:44:52.749Z,18.09
2023-06-17T15:47:20.051Z,18.12
2023-06-17T15:49:47.080Z,18.15
2023-06-17T15:52:14.441Z,18.21
2023-06-17T15:54:41.623Z,18.62
2023-06-17T15:57:10.102Z,19.19
2023-06-17T15:59:37.318Z,19.64
2023-06-17T16:02:05.088Z,19.71
2023-06-17T16:04:40.365Z,19.61
2023-06-17T16:07:12.018Z,19.58
2023-06-17T16:09:43.924Z,19.69
2023-06-17T16:12:15.495Z,19.64
2023-06-17T16:14:44.826Z,19.74
2023-06-17T16:17:12.765Z,19.83
2023-06-17T16:19:40.130Z,19.85
2023-06-17T16:22:13.607Z,19.80
2023-06-17T16:24:42.920Z,19.71
2023-06-17T16:27:12.133Z,19.58
2023-06-17T16:29:40.339Z,19.41
2023-06-17T16:32:08.114Z,19.37
2023-06-17T16:34:35.580Z,19.43
2023-06-17T16:37:03.651Z,19.49
2023-06-17T16:39:31.220Z,19.63
2023-06-17T16:41:58.782Z,19.64
2023-06-17T16:44:26.196Z,19.52
2023-06-17T16:46:54.039Z,19.40
2023-06-17T16:49:21.145Z,19.39
2023-06-17T16:51:49.012Z,19.45
2023-06-17T16:54:16.323Z,19.44
2023-06-17T16:56:43.791Z,19.56
2023-06-17T16:59:12.007Z,19.55
2023-06-17T17:01:40.380Z,19.57
2023-06-17T17:04:13.792Z,19.54
2023-06-17T17:06:43.592Z,19.43
2023-06-17T17:09:11.292Z,19.47
2023-06-17T17:11:38.620Z,19.54
2023-06-17T17:14:05.850Z,19.53
2023-06-17T17:16:33.358Z,19.54
2023-06-17T17:19:00.588Z,19.59
2023-06-17T17:21:28.219Z,19.69
2023-06-17T17:23:55.310Z,19.73
2023-06-17T17:26:22.985Z,19.75
2023-06-17T17:28:50.092Z,19.79
2023-06-17T17:31:17.746Z,19.82
2023-06-17T17:33:45.352Z,19.83
2023-06-17T17:36:15.304Z,19.81
2023-06-17T17:38:43.484Z,19.77
2023-06-17T17:41:12.349Z,19.80
2023-06-17T17:43:39.881Z,19.86
2023-06-17T17:46:12.557Z,19.89
2023-06-17T17:48:39.949Z,19.87
2023-06-17T17:51:07.520Z,19.76
2023-06-17T17:53:34.743Z,19.67
2023-06-17T17:56:02.254Z,19.54
2023-06-17T17:58:29.386Z,19.46
2023-06-17T18:01:02.359Z,19.37
2023-06-17T18:03:29.901Z,19.35
2023-06-17T18:05:57.721Z,19.33
2023-06-17T18:08:24.829Z,19.23
2023-06-17T18:10:52.053Z,19.16
2023-06-17T18:13:19.154Z,19.15
2023-06-17T18:15:46.607Z,19.15
2023-06-17T18:18:13.698Z,19.16
2023-06-17T18:20:41.182Z,19.14
2023-06-17T18:23:08.461Z,19.15
2023-06-17T18:25:35.908Z,19.15
2023-06-17T18:28:03.113Z,19.12
2023-06-17T18:30:31.474Z,19.13
2023-06-17T18:32:58.670Z,19.12
2023-06-17T18:35:26.172Z,19.10
2023-06-17T18:37:53.473Z,19.08
2023-06-17T18:40:21.536Z,19.09
2023-06-17T18:42:49.895Z,19.10
2023-06-17T18:45:18.047Z,19.11
2023-06-17T18:47:45.301Z,19.06
2023-06-17T18:50:12.995Z,19.06
2023-06-17T18:52:40.146Z,19.02
2023-06-17T18:55:09.078Z,19.07
2023-06-17T18:57:36.609Z,19.07
2023-06-17T19:00:05.797Z,19.07
2023-06-17T19:02:33.386Z,19.04
2023-06-17T19:05:01.386Z,19.02
2023-06-17T19:07:28.901Z,19.01
2023-06-17T19:09:58.005Z,18.99
2023-06-17T19:12:25.476Z,19.01
2023-06-17T19:14:56.103Z,18.99
2023-06-17T19:17:23.365Z,18.99
2023-06-17T19:19:51.701Z,18.97
2023-06-17T19:22:19.184Z,18.97
2023-06-17T19:24:46.547Z,18.99
2023-06-17T19:27:13.710Z,18.98
2023-06-17T19:29:41.604Z,18.98
2023-06-17T19:32:09.173Z,18.96
2023-06-17T19:34:37.212Z,18.95
2023-06-17T19:37:05.091Z,18.94
2023-06-17T19:39:32.654Z,18.91
2023-06-17T19:41:59.783Z,18.92
2023-06-17T19:44:33.643Z,18.95
2023-06-17T19:47:01.303Z,18.93
2023-06-17T19:49:28.671Z,18.91
2023-06-17T19:51:56.933Z,18.88
2023-06-17T19:54:24.823Z,18.86
2023-06-17T19:56:53.219Z,18.85
2023-06-17T19:59:23.419Z,18.84
2023-06-17T20:01:51.874Z,18.84
2023-06-17T20:04:20.023Z,18.84
2023-06-17T20:06:47.200Z,18.84
2023-06-17T20:09:14.739Z,18.86
2023-06-17T20:11:41.812Z,18.85
2023-06-17T20:14:09.246Z,18.80
2023-06-17T20:16:37.303Z,18.78
2023-06-17T20:19:04.774Z,18.76
2023-06-17T20:21:31.933Z,18.75
2023-06-17T20:23:59.936Z,18.76
2023-06-17T20:26:27.385Z,18.80
2023-06-17T20:28:55.114Z,18.79
2023-06-17T20:31:22.497Z,18.77
2023-06-17T20:33:53.011Z,18.80
2023-06-17T20:36:20.266Z,18.79
2023-06-17T20:38:47.695Z,18.80
2023-06-17T20:41:14.796Z,18.77
2023-06-17T20:43:42.609Z,18.76
2023-06-17T20:46:10.468Z,18.77
2023-06-17T20:48:37.949Z,18.78
2023-06-17T20:51:08.423Z,18.75
2023-06-17T20:53:35.858Z,18.75
2023-06-17T20:56:02.922Z,18.74
2023-06-17T20:58:33.402Z,18.72
2023-06-17T21:01:00.621Z,18.73
2023-06-17T21:03:28.300Z,18.76
2023-06-17T21:05:55.712Z,18.74
2023-06-17T21:08:23.451Z,18.73
2023-06-17T21:10:50.742Z,18.73
2023-06-17T21:13:18.240Z,18.71
2023-06-17T21:15:46.057Z,18.74
2023-06-17T21:18:13.852Z,18.72
2023-06-17T21:20:41.136Z,18.68
2023-06-17T21:23:08.651Z,18.67
2023-06-17T21:25:35.918Z,18.68
2023-06-17T21:28:04.925Z,18.67
2023-06-17T21:30:32.198Z,18.65
2023-06-17T21:32:59.593Z,18.64
2023-06-17T21:35:26.846Z,18.62
2023-06-17T21:37:54.278Z,18.64
2023-06-17T21:40:21.610Z,18.64
2023-06-17T21:42:49.239Z,18.62
2023-06-17T21:45:18.818Z,18.59
2023-06-17T21:47:46.194Z,18.58
2023-06-17T21:50:13.443Z,18.55
2023-06-17T21:52:41.038Z,18.54
2023-06-17T21:55:08.899Z,18.51
2023-06-17T21:57:36.322Z,18.50
2023-06-17T22:00:04.248Z,18.52
2023-06-17T22:02:31.540Z,18.50
2023-06-17T22:04:58.669Z,18.49
2023-06-17T22:07:26.029Z,18.49
2023-06-17T22:09:53.254Z,18.46
2023-06-17T22:12:20.969Z,18.45
2023-06-17T22:14:48.039Z,18.42
2023-06-17T22:17:15.712Z,18.39
2023-06-17T22:19:42.860Z,18.36
2023-06-17T22:22:10.494Z,18.37
2023-06-17T22:24:38.932Z,18.36
2023-06-17T22:27:07.608Z,18.35
2023-06-17T22:29:34.799Z,18.32
2023-06-17T22:32:04.244Z,18.27
2023-06-17T22:34:31.460Z,18.22
2023-06-17T22:36:59.147Z,18.21
2023-06-17T22:39:26.395Z,18.21
2023-06-17T22:41:54.125Z,18.20
2023-06-17T22:44:21.275Z,18.19
2023-06-17T22:46:48.889Z,18.17
2023-06-17T22:49:15.999Z,18.17
2023-06-17T22:51:43.436Z,18.18
2023-06-17T22:54:11.150Z,18.15
2023-06-17T22:56:38.473Z,18.11
2023-06-17T22:59:05.792Z,18.07
2023-06-17T23:01:33.267Z,18.04
2023-06-17T23:04:00.692Z,18.00
2023-06-17T23:06:28.295Z,17.96
2023-06-17T23:08:55.616Z,17.92
2023-06-17T23:11:23.235Z,17.85
2023-06-17T23:13:50.473Z,17.83
2023-06-17T23:16:17.783Z,17.81
2023-06-17T23:18:45.005Z,17.77
2023-06-17T23:21:13.837Z,17.79
2023-06-17T23:23:41.732Z,17.77
2023-06-17T23:26:12.650Z,17.72
2023-06-17T23:28:41.105Z,17.68
2023-06-17T23:31:12.044Z,17.68
2023-06-17T23:33:39.522Z,17.63
2023-06-17T23:36:09.940Z,17.58
2023-06-17T23:38:40.698Z,17.53
2023-06-17T23:41:08.047Z,17.51
2023-06-17T23:43:35.538Z,17.47
2023-06-17T23:46:04.374Z,17.44
2023-06-17T23:48:31.835Z,17.42
2023-06-17T23:50:59.634Z,17.40
2023-06-17T23:53:26.737Z,17.39
2023-06-17T23:55:54.120Z,17.37
2023-06-17T23:58:21.480Z,17.38
